Time;durP1;ratioP1;P1;durP2;ratioP2;P2;SDS_P1;SDS_P2;PMS_P1;PMS_P2;Temp;Humidity;BMP_temperature;BMP_pressure;BME280_temperature;BME280_humidity;BME280_pressure;Samples;Min_cycle;Max_cycle;Signal;HPM_P1;HPM_P2
2022/01/19 00:01:01;;;;;;;90.05;28.30;;;4.60;99.90;;;;;;5057751;28;20045;-80
2022/01/19 00:03:27;;;;;;;87.05;28.35;;;4.70;99.90;;;;;;5032971;28;20041;-81
2022/01/19 00:05:53;;;;;;;83.68;29.58;;;4.70;99.90;;;;;;5042603;28;20045;-80
2022/01/19 00:08:21;;;;;;;90.28;27.85;;;4.60;99.90;;;;;;5050888;28;20045;-80
2022/01/19 00:10:48;;;;;;;76.65;26.67;;;4.70;99.90;;;;;;5085515;28;20045;-80
2022/01/19 00:13:15;;;;;;;81.32;27.08;;;4.60;99.90;;;;;;5061191;28;20060;-80
2022/01/19 00:15:41;;;;;;;71.72;23.85;;;4.70;99.90;;;;;;5051971;28;20390;-81
2022/01/19 00:18:07;;;;;;;62.10;22.48;;;4.70;99.90;;;;;;5061883;28;20048;-80
2022/01/19 00:20:34;;;;;;;74.85;24.25;;;4.60;99.90;;;;;;5056060;28;20041;-80
2022/01/19 00:23:03;;;;;;;90.50;27.35;;;4.70;99.90;;;;;;5048578;28;20175;-80
2022/01/19 00:25:29;;;;;;;76.85;26.23;;;4.70;99.90;;;;;;5069917;28;20110;-80
2022/01/19 00:27:55;;;;;;;74.80;27.25;;;4.70;99.90;;;;;;5044675;28;20494;-80
2022/01/19 00:30:21;;;;;;;80.47;26.50;;;4.70;99.90;;;;;;5025427;28;20044;-81
2022/01/19 00:32:47;;;;;;;74.68;23.35;;;4.70;99.90;;;;;;5053021;28;20056;-80
2022/01/19 00:35:13;;;;;;;63.28;22.02;;;4.80;99.90;;;;;;5056708;28;20049;-81
2022/01/19 00:37:40;;;;;;;62.88;22.20;;;4.70;99.90;;;;;;5055543;28;20048;-81
2022/01/19 00:40:08;;;;;;;62.45;22.38;;;4.80;99.90;;;;;;5055524;28;20728;-80
2022/01/19 00:42:34;;;;;;;65.57;21.35;;;4.80;99.90;;;;;;5055156;28;20421;-80
2022/01/19 00:45:00;;;;;;;75.65;22.95;;;4.80;99.90;;;;;;5022213;28;20048;-80
2022/01/19 00:47:26;;;;;;;69.82;22.85;;;4.80;99.90;;;;;;5070965;28;20479;-81
2022/01/19 00:49:53;;;;;;;67.70;23.00;;;4.90;99.90;;;;;;5057318;28;20052;-81
2022/01/19 00:52:19;;;;;;;67.90;23.20;;;4.80;99.90;;;;;;5055090;28;20087;-80
2022/01/19 00:54:45;;;;;;;64.68;20.88;;;4.80;99.90;;;;;;5038510;28;20072;-80
2022/01/19 00:57:10;;;;;;;61.97;22.23;;;4.80;99.90;;;;;;5040586;28;20527;-80
2022/01/19 00:59:36;;;;;;;73.07;23.05;;;4.80;99.90;;;;;;5036092;28;20368;-81
2022/01/19 01:02:02;;;;;;;77.93;25.27;;;4.80;99.90;;;;;;5062280;28;20048;-81
2022/01/19 01:04:28;;;;;;;73.68;23.55;;;4.80;99.90;;;;;;5053655;28;20052;-82
2022/01/19 01:06:54;;;;;;;76.05;24.83;;;4.90;99.90;;;;;;5037276;28;20087;-81
2022/01/19 01:09:20;;;;;;;68.65;22.67;;;4.90;99.90;;;;;;5052830;28;20499;-80
2022/01/19 01:11:57;;;;;;;69.10;23.35;;;4.80;99.90;;;;;;5050832;28;20056;-79
2022/01/19 01:19:52;;;;;;;67.85;22.75;;;4.80;99.90;;;;;;5055944;28;20056;-80
2022/01/19 01:22:17;;;;;;;65.40;21.00;;;4.80;99.90;;;;;;5028142;28;20046;-88
2022/01/19 01:24:43;;;;;;;71.32;22.67;;;4.80;99.90;;;;;;5037274;28;20088;-80
2022/01/19 01:27:08;;;;;;;68.50;21.13;;;4.80;99.90;;;;;;5046218;28;20048;-80
2022/01/19 01:29:34;;;;;;;58.50;21.67;;;4.80;99.90;;;;;;5050256;28;20048;-80
2022/01/19 01:32:00;;;;;;;72.82;22.20;;;4.90;99.90;;;;;;5055562;28;20048;-80
2022/01/19 01:34:25;;;;;;;79.20;23.25;;;4.90;99.90;;;;;;5041294;28;20053;-83
2022/01/19 01:36:51;;;;;;;65.85;21.92;;;4.90;99.90;;;;;;5053097;28;20133;-79
2022/01/19 01:39:17;;;;;;;75.72;22.48;;;4.80;99.90;;;;;;5055799;28;20442;-80
2022/01/19 01:41:42;;;;;;;73.03;22.42;;;4.80;99.90;;;;;;5036182;28;20049;-79
2022/01/19 01:44:08;;;;;;;65.50;22.73;;;4.90;99.90;;;;;;5052063;28;20390;-80
2022/01/19 01:46:50;;;;;;;66.55;21.92;;;4.80;99.90;;;;;;5037128;28;20063;-80
2022/01/19 01:49:27;;;;;;;64.50;22.08;;;4.80;99.90;;;;;;5037883;28;20055;-80
2022/01/19 01:54:40;;;;;;;69.97;23.67;;;4.80;99.90;;;;;;5046036;28;20543;-81
2022/01/19 01:57:07;;;;;;;75.55;23.30;;;4.70;99.90;;;;;;5053786;28;20049;-80
2022/01/19 01:59:34;;;;;;;73.22;24.25;;;4.70;99.90;;;;;;5020346;28;20045;-80
2022/01/19 02:02:00;;;;;;;73.47;22.23;;;4.70;99.90;;;;;;5053049;28;20036;-80
2022/01/19 02:04:26;;;;;;;81.28;23.52;;;4.70;99.90;;;;;;5053029;28;20448;-80
2022/01/19 02:09:47;;;;;;;76.13;24.75;;;4.80;99.90;;;;;;5021255;28;20041;-79
2022/01/19 02:23:24;;;;;;;90.88;26.40;;;4.70;99.90;;;;;;5038303;28;20049;-81
2022/01/19 02:25:53;;;;;;;80.57;27.70;;;4.70;99.90;;;;;;5050191;28;20041;-80
2022/01/19 02:41:38;;;;;;;94.38;29.77;;;4.70;99.90;;;;;;5019040;28;20064;-80
2022/01/19 02:44:05;;;;;;;83.97;26.92;;;4.60;99.90;;;;;;5064432;28;20052;-80
2022/01/19 02:49:17;;;;;;;89.30;26.95;;;4.60;99.90;;;;;;5085392;28;20106;-80
2022/01/19 02:51:45;;;;;;;85.70;26.85;;;4.60;99.90;;;;;;5019111;28;20128;-81
2022/01/19 02:54:16;;;;;;;92.97;28.27;;;4.70;99.90;;;;;;5036598;28;20099;-79
2022/01/19 02:56:46;;;;;;;73.95;26.67;;;4.60;99.90;;;;;;5023738;28;20427;-80
2022/01/19 03:10:08;;;;;;;83.13;25.85;;;4.40;99.90;;;;;;5024802;28;20053;-80
2022/01/19 03:12:34;;;;;;;71.18;27.65;;;4.40;99.90;;;;;;5010336;28;20041;-81
2022/01/19 03:15:00;;;;;;;83.55;27.63;;;4.40;99.90;;;;;;5019140;28;20048;-80
2022/01/19 03:17:25;;;;;;;84.55;29.00;;;4.40;99.90;;;;;;5002644;28;20048;-81
2022/01/19 03:19:51;;;;;;;87.40;28.27;;;4.40;99.90;;;;;;5008034;28;20128;-80
2022/01/19 03:22:20;;;;;;;82.72;28.55;;;4.50;99.90;;;;;;5017953;28;20052;-81
2022/01/19 03:24:50;;;;;;;83.35;27.63;;;4.40;99.90;;;;;;5012125;28;20041;-82
2022/01/19 03:27:17;;;;;;;84.78;29.23;;;4.40;99.90;;;;;;5015256;28;20136;-80
2022/01/19 03:29:43;;;;;;;77.53;27.35;;;4.40;99.90;;;;;;5005843;28;20147;-80
2022/01/19 03:32:10;;;;;;;83.22;27.98;;;4.40;99.90;;;;;;5029317;28;20050;-80
2022/01/19 03:34:36;;;;;;;81.13;28.63;;;4.40;99.90;;;;;;5034953;28;20051;-87
2022/01/19 03:37:03;;;;;;;82.35;27.30;;;4.30;99.90;;;;;;5027104;28;20049;-81
2022/01/19 03:39:30;;;;;;;89.80;29.13;;;4.30;99.90;;;;;;5015897;28;20066;-81
2022/01/19 03:41:55;;;;;;;90.30;29.83;;;4.30;99.90;;;;;;4969002;28;20099;-80
2022/01/19 03:44:21;;;;;;;88.85;29.42;;;4.30;99.90;;;;;;5006637;28;20049;-80
2022/01/19 03:46:58;;;;;;;97.63;30.67;;;4.30;99.90;;;;;;5027738;28;20049;-80
2022/01/19 03:49:27;;;;;;;87.72;29.75;;;4.20;99.90;;;;;;5026035;28;20063;-80
2022/01/19 03:51:58;;;;;;;87.78;29.75;;;4.30;99.90;;;;;;5047836;28;20050;-80
2022/01/19 03:54:28;;;;;;;89.85;29.90;;;4.20;99.90;;;;;;5040871;28;20081;-80
2022/01/19 03:56:54;;;;;;;96.43;30.23;;;4.20;99.90;;;;;;5035417;28;20049;-80
2022/01/19 03:59:20;;;;;;;108.88;30.88;;;4.20;99.90;;;;;;5035115;28;20049;-80
2022/01/19 04:01:46;;;;;;;98.78;30.80;;;4.20;99.90;;;;;;5052673;28;20057;-83
2022/01/19 04:06:54;;;;;;;101.90;31.75;;;4.20;99.90;;;;;;5050662;28;20049;-80
2022/01/19 04:09:20;;;;;;;95.82;28.50;;;4.20;99.90;;;;;;5020149;28;20060;-79
2022/01/19 04:11:45;;;;;;;93.63;31.40;;;4.10;99.90;;;;;;5049562;28;20041;-80
2022/01/19 04:14:24;;;;;;;87.50;32.72;;;4.10;99.90;;;;;;5033831;28;20069;-79
2022/01/19 04:16:59;;;;;;;83.47;31.13;;;4.10;99.90;;;;;;5053228;28;20052;-80
2022/01/19 04:19:29;;;;;;;76.53;28.80;;;4.00;99.90;;;;;;5050867;28;20425;-80
2022/01/19 04:22:03;;;;;;;82.00;28.92;;;4.10;99.90;;;;;;5048168;28;20611;-80
2022/01/19 04:24:30;;;;;;;89.22;30.38;;;3.90;99.90;;;;;;5015127;28;20045;-80
2022/01/19 04:27:43;;;;;;;80.80;27.48;;;3.90;99.90;;;;;;5031541;28;20057;-80
2022/01/19 04:34:59;;;;;;;91.55;30.20;;;3.80;99.90;;;;;;5051653;28;20049;-80
2022/01/19 04:37:38;;;;;;;92.68;30.25;;;3.90;99.90;;;;;;5049083;28;20372;-80
2022/01/19 05:02:01;;;;;;;83.75;28.80;;;3.80;99.90;;;;;;5065452;28;20075;-89
2022/01/19 05:07:06;;;;;;;82.60;28.80;;;3.80;99.90;;;;;;5043464;28;20045;-79
2022/01/19 05:14:45;;;;;;;99.38;30.38;;;3.70;99.90;;;;;;5042732;28;20132;-80
2022/01/19 05:17:11;;;;;;;88.28;30.35;;;3.80;99.90;;;;;;5047833;28;20395;-80
2022/01/19 05:19:37;;;;;;;85.78;30.67;;;3.80;99.90;;;;;;5019032;28;20057;-80
2022/01/19 05:22:03;;;;;;;88.00;30.35;;;3.80;99.90;;;;;;5055589;28;20041;-80
2022/01/19 05:24:29;;;;;;;83.80;29.67;;;3.80;99.90;;;;;;5033807;28;20045;-80
2022/01/19 05:26:54;;;;;;;86.30;30.73;;;3.80;99.90;;;;;;5037614;28;20045;-80
2022/01/19 05:29:20;;;;;;;90.10;30.15;;;3.80;99.90;;;;;;5063959;28;20048;-79
2022/01/19 05:31:46;;;;;;;78.70;28.95;;;3.80;99.90;;;;;;5060822;28;20098;-78
2022/01/19 05:34:12;;;;;;;80.63;29.75;;;3.80;99.90;;;;;;5063256;28;20041;-78
2022/01/19 05:36:37;;;;;;;90.10;30.17;;;3.80;99.90;;;;;;5034634;28;20125;-84
2022/01/19 05:39:05;;;;;;;81.53;28.00;;;3.90;99.90;;;;;;5066140;28;20485;-82
2022/01/19 05:41:31;;;;;;;85.53;30.20;;;3.80;99.90;;;;;;5053803;28;20056;-80
2022/01/19 05:43:57;;;;;;;84.50;30.17;;;3.80;99.90;;;;;;5057929;28;20498;-79
2022/01/19 05:46:23;;;;;;;84.72;30.50;;;3.80;99.90;;;;;;5032099;28;20055;-79
2022/01/19 05:48:49;;;;;;;90.25;31.92;;;3.80;99.90;;;;;;5048260;28;20445;-79
2022/01/19 05:51:14;;;;;;;84.20;29.88;;;3.80;99.90;;;;;;5067353;28;20621;-79
2022/01/19 05:53:40;;;;;;;84.47;29.83;;;3.80;99.90;;;;;;5045650;28;20107;-79
2022/01/19 05:56:07;;;;;;;81.53;28.13;;;3.80;99.90;;;;;;5035524;28;20426;-80
2022/01/19 05:58:33;;;;;;;75.70;30.10;;;3.80;99.90;;;;;;5054479;28;20576;-79
2022/01/19 06:00:58;;;;;;;79.22;30.02;;;3.80;99.90;;;;;;5048162;28;20049;-79
2022/01/19 06:03:25;;;;;;;81.32;29.33;;;3.80;99.90;;;;;;5048125;28;20469;-79
2022/01/19 06:05:51;;;;;;;82.68;28.58;;;3.80;99.90;;;;;;5037326;28;20371;-79
2022/01/19 06:10:54;;;;;;;81.20;28.88;;;3.90;99.90;;;;;;5039336;28;20106;-81
2022/01/19 06:13:22;;;;;;;77.53;30.75;;;3.90;99.90;;;;;;5049724;28;20053;-79
2022/01/19 06:15:48;;;;;;;82.30;30.95;;;3.90;99.90;;;;;;5036017;28;20505;-79
2022/01/19 06:18:16;;;;;;;73.85;29.15;;;3.90;99.90;;;;;;5052612;28;20407;-80
2022/01/19 06:20:43;;;;;;;79.55;28.27;;;3.90;99.90;;;;;;5051052;28;20042;-79
2022/01/19 06:23:09;;;;;;;79.72;29.08;;;3.90;99.90;;;;;;5052615;28;20041;-79
2022/01/19 06:25:34;;;;;;;81.85;31.38;;;3.90;99.90;;;;;;5053814;28;20099;-79
2022/01/19 06:28:01;;;;;;;80.25;32.03;;;4.00;99.90;;;;;;5048738;28;20049;-81
2022/01/19 06:30:28;;;;;;;77.22;30.05;;;3.90;99.90;;;;;;5036318;28;20133;-80
2022/01/19 06:32:53;;;;;;;76.32;30.42;;;3.90;99.90;;;;;;5053474;28;20040;-79
2022/01/19 06:35:19;;;;;;;76.95;29.42;;;3.90;99.90;;;;;;5039039;28;20051;-80
2022/01/19 06:37:45;;;;;;;80.03;30.67;;;3.90;99.90;;;;;;5050238;28;20048;-80
2022/01/19 06:40:13;;;;;;;81.05;31.58;;;3.90;99.90;;;;;;5050353;28;20049;-77
2022/01/19 06:42:39;;;;;;;74.43;30.60;;;3.90;99.90;;;;;;5046916;28;20049;-78
2022/01/19 06:45:06;;;;;;;80.43;29.88;;;3.90;99.90;;;;;;5038071;28;20076;-78
2022/01/19 06:47:32;;;;;;;76.03;29.67;;;3.90;99.90;;;;;;5059218;28;20540;-82
2022/01/19 06:49:58;;;;;;;78.13;30.77;;;3.90;99.90;;;;;;5050568;28;20052;-82
2022/01/19 06:52:23;;;;;;;76.13;30.27;;;3.90;99.90;;;;;;5034152;28;20537;-81
2022/01/19 06:54:49;;;;;;;74.50;28.05;;;3.90;99.90;;;;;;5034455;28;20043;-82
2022/01/19 06:57:15;;;;;;;82.65;31.58;;;3.90;99.90;;;;;;5033370;28;20406;-81
2022/01/19 06:59:41;;;;;;;72.40;31.67;;;4.00;99.90;;;;;;5016535;28;20044;-78
2022/01/19 07:02:06;;;;;;;77.28;30.10;;;4.00;99.90;;;;;;5056643;28;20081;-81
2022/01/19 07:04:32;;;;;;;68.88;28.70;;;4.00;99.90;;;;;;5040920;28;20049;-78
2022/01/19 07:06:58;;;;;;;75.38;30.20;;;4.00;99.90;;;;;;5033436;28;20127;-84
2022/01/19 07:09:24;;;;;;;72.10;30.05;;;4.00;99.90;;;;;;5046205;28;20059;-79
2022/01/19 07:11:50;;;;;;;76.88;30.88;;;4.00;99.90;;;;;;5034617;28;20487;-80
2022/01/19 07:14:17;;;;;;;78.03;29.58;;;4.00;99.90;;;;;;5048855;28;20045;-79
2022/01/19 07:16:44;;;;;;;78.53;30.05;;;4.00;99.90;;;;;;5047268;28;20467;-80
2022/01/19 07:19:10;;;;;;;73.40;29.38;;;4.00;99.90;;;;;;5047416;28;20486;-80
2022/01/19 07:21:36;;;;;;;73.38;29.42;;;4.00;99.90;;;;;;5048014;28;20132;-80
2022/01/19 07:24:02;;;;;;;72.18;29.40;;;4.00;99.90;;;;;;5056191;28;20135;-80
2022/01/19 07:26:27;;;;;;;74.53;29.75;;;4.00;99.90;;;;;;5033857;28;20107;-80
2022/01/19 07:28:53;;;;;;;74.22;30.73;;;4.00;99.90;;;;;;5051545;28;20474;-80
2022/01/19 07:31:19;;;;;;;72.35;31.00;;;4.00;99.90;;;;;;5033927;28;20060;-80
2022/01/19 07:33:45;;;;;;;75.43;29.02;;;4.00;99.90;;;;;;5050695;28;20060;-80
2022/01/19 07:36:11;;;;;;;71.05;31.10;;;4.00;99.90;;;;;;5014410;28;20049;-82
2022/01/19 07:38:37;;;;;;;73.45;29.90;;;4.00;99.90;;;;;;5055542;28;20874;-80
2022/01/19 07:41:03;;;;;;;78.07;30.65;;;4.00;99.90;;;;;;5047790;28;20041;-80
2022/01/19 07:43:28;;;;;;;71.18;29.15;;;4.00;99.90;;;;;;5066494;28;20076;-78
2022/01/19 07:45:54;;;;;;;70.85;29.33;;;4.00;99.90;;;;;;5042115;28;20081;-79
2022/01/19 07:48:20;;;;;;;66.68;29.08;;;4.00;99.90;;;;;;5050168;28;20128;-80
2022/01/19 07:50:45;;;;;;;59.22;27.55;;;4.00;99.90;;;;;;5034138;28;20060;-78
2022/01/19 07:53:11;;;;;;;58.92;26.42;;;4.00;99.90;;;;;;5034641;28;20708;-85
2022/01/19 07:55:37;;;;;;;61.42;27.40;;;4.00;99.90;;;;;;5034618;28;20037;-79
2022/01/19 07:58:02;;;;;;;58.50;25.80;;;4.00;99.90;;;;;;5051135;28;20052;-76
2022/01/19 08:00:29;;;;;;;55.95;25.48;;;4.00;99.90;;;;;;5047349;28;20508;-81
2022/01/19 08:02:55;;;;;;;60.92;26.50;;;4.00;99.90;;;;;;5064055;28;20029;-80
2022/01/19 08:05:21;;;;;;;72.05;27.88;;;4.10;99.90;;;;;;5048591;28;20112;-81
2022/01/19 08:07:47;;;;;;;58.55;25.70;;;4.00;99.90;;;;;;5034727;28;20053;-81
2022/01/19 08:10:13;;;;;;;55.47;25.45;;;4.00;99.90;;;;;;5023726;28;20057;-84
2022/01/19 08:12:40;;;;;;;62.30;26.80;;;4.10;99.90;;;;;;5033561;28;20049;-81
2022/01/19 08:15:06;;;;;;;57.63;25.95;;;4.00;99.90;;;;;;5051726;28;20049;-80
2022/01/19 08:17:33;;;;;;;64.88;28.75;;;4.00;99.90;;;;;;5044493;28;20441;-79
2022/01/19 08:19:59;;;;;;;65.15;26.65;;;4.00;99.90;;;;;;5052706;28;20414;-81
2022/01/19 08:22:25;;;;;;;65.22;26.88;;;4.00;99.90;;;;;;5048949;28;20045;-80
2022/01/19 08:24:51;;;;;;;64.57;26.80;;;4.00;99.90;;;;;;5048740;28;20045;-81
2022/01/19 08:27:17;;;;;;;59.78;28.05;;;4.00;99.90;;;;;;5050282;28;20056;-81
2022/01/19 08:29:43;;;;;;;62.00;26.33;;;4.00;99.90;;;;;;5050482;28;20045;-81
2022/01/19 08:32:09;;;;;;;62.65;27.65;;;4.00;99.90;;;;;;5050289;28;20502;-82
2022/01/19 08:34:35;;;;;;;55.13;25.08;;;4.00;99.90;;;;;;5049053;28;20083;-82
2022/01/19 08:37:02;;;;;;;59.60;26.05;;;3.90;99.90;;;;;;5049748;28;20490;-81
2022/01/19 08:39:28;;;;;;;65.32;28.30;;;4.00;99.90;;;;;;5046975;28;20518;-80
2022/01/19 08:41:54;;;;;;;56.20;25.70;;;3.90;99.90;;;;;;5047059;28;20072;-80
2022/01/19 08:44:21;;;;;;;58.35;26.50;;;4.00;99.90;;;;;;5046486;28;20064;-81
2022/01/19 08:46:48;;;;;;;66.70;28.00;;;3.90;99.90;;;;;;5053860;28;20404;-82
2022/01/19 08:49:14;;;;;;;68.57;27.77;;;3.90;99.90;;;;;;5045720;28;20490;-82
2022/01/19 08:51:40;;;;;;;63.08;29.48;;;3.90;99.90;;;;;;5029257;28;20045;-81
2022/01/19 08:54:06;;;;;;;67.32;28.80;;;3.90;99.90;;;;;;5042467;28;20110;-88
2022/01/19 08:56:32;;;;;;;63.58;29.00;;;3.90;99.90;;;;;;5027747;28;20509;-81
2022/01/19 08:58:58;;;;;;;60.55;28.05;;;4.00;99.90;;;;;;5019963;28;20049;-82
2022/01/19 09:01:24;;;;;;;56.17;26.20;;;4.00;99.90;;;;;;5036520;28;20041;-80
2022/01/19 09:03:49;;;;;;;66.18;29.45;;;4.00;99.90;;;;;;5046304;28;20502;-82
2022/01/19 09:06:15;;;;;;;59.85;27.25;;;4.10;99.90;;;;;;5024099;28;20053;-81
2022/01/19 09:08:41;;;;;;;61.63;30.00;;;4.10;99.90;;;;;;5025780;28;20051;-80
2022/01/19 09:11:07;;;;;;;64.43;27.25;;;4.10;99.90;;;;;;5034623;28;20107;-82
2022/01/19 09:13:34;;;;;;;63.20;29.80;;;4.10;99.90;;;;;;5051463;28;20045;-81
2022/01/19 09:15:59;;;;;;;63.17;26.40;;;4.20;99.90;;;;;;5063659;28;20090;-80
2022/01/19 09:18:25;;;;;;;75.93;30.63;;;4.20;99.90;;;;;;5052569;28;20436;-79
2022/01/19 09:20:52;;;;;;;58.42;27.00;;;4.20;99.90;;;;;;5045351;28;20059;-81
2022/01/19 09:23:18;;;;;;;51.95;23.30;;;4.30;99.90;;;;;;5033570;28;20483;-84
2022/01/19 09:25:43;;;;;;;58.70;26.50;;;4.30;99.90;;;;;;5054109;28;20048;-80
2022/01/19 09:28:10;;;;;;;64.45;28.55;;;4.30;99.90;;;;;;5053228;28;20126;-80
2022/01/19 09:30:36;;;;;;;63.13;29.08;;;4.30;99.90;;;;;;5050874;28;20051;-81
2022/01/19 09:33:17;;;;;;;61.22;30.00;;;4.40;99.90;;;;;;5077200;28;20053;-81
2022/01/19 09:38:20;;;;;;;60.58;27.83;;;4.30;99.90;;;;;;5051866;28;20085;-81
2022/01/19 09:40:46;;;;;;;64.65;28.52;;;4.40;99.90;;;;;;5050228;28;20044;-80
2022/01/19 09:43:12;;;;;;;57.10;28.80;;;4.50;99.90;;;;;;5034341;28;20410;-80
2022/01/19 09:45:38;;;;;;;63.33;30.17;;;4.50;99.90;;;;;;5037130;28;20186;-81
2022/01/19 09:48:05;;;;;;;64.22;30.35;;;4.60;99.90;;;;;;5047322;28;20530;-82
2022/01/19 09:50:32;;;;;;;59.60;30.50;;;4.60;99.90;;;;;;5046781;28;20391;-81
2022/01/19 09:52:58;;;;;;;64.38;30.98;;;4.60;99.90;;;;;;5052602;28;20064;-82
2022/01/19 09:55:24;;;;;;;63.30;30.60;;;4.60;99.90;;;;;;5050797;28;20045;-82
2022/01/19 09:57:50;;;;;;;63.00;31.45;;;4.60;99.90;;;;;;5040051;28;20049;-80
2022/01/19 10:00:16;;;;;;;66.97;30.45;;;4.60;99.90;;;;;;5039966;28;20067;-81
2022/01/19 10:02:42;;;;;;;62.72;30.70;;;4.60;99.90;;;;;;5032199;28;20072;-83
2022/01/19 10:05:09;;;;;;;63.50;31.38;;;4.70;99.90;;;;;;5029834;28;20491;-81
2022/01/19 10:07:35;;;;;;;63.50;30.02;;;4.70;99.90;;;;;;5048058;28;20051;-81
2022/01/19 10:10:03;;;;;;;63.72;30.83;;;4.70;99.90;;;;;;5057073;28;20496;-81
2022/01/19 10:18:21;;;;;;;63.47;29.95;;;4.80;99.90;;;;;;5048137;28;20052;-82
2022/01/19 10:21:07;;;;;;;66.85;30.58;;;4.80;99.90;;;;;;5051782;28;20478;-79
2022/01/19 10:23:36;;;;;;;60.75;31.45;;;4.80;99.90;;;;;;5049773;28;20399;-80
2022/01/19 10:26:03;;;;;;;59.92;29.70;;;4.80;99.90;;;;;;5051544;28;20056;-81
2022/01/19 10:28:29;;;;;;;61.30;31.08;;;4.90;99.90;;;;;;5050924;28;20079;-80
2022/01/19 10:30:55;;;;;;;61.63;30.70;;;4.90;99.90;;;;;;5034841;28;20065;-81
2022/01/19 10:33:21;;;;;;;64.28;31.55;;;4.90;99.90;;;;;;5051989;28;20049;-81
2022/01/19 10:35:48;;;;;;;59.72;31.02;;;4.80;99.90;;;;;;5051735;28;20146;-81
2022/01/19 10:38:23;;;;;;;62.92;31.30;;;4.90;99.90;;;;;;5052088;28;20041;-80
2022/01/19 10:40:55;;;;;;;57.63;28.95;;;4.90;99.90;;;;;;5051552;28;20098;-82
2022/01/19 10:43:36;;;;;;;61.33;31.05;;;4.90;99.90;;;;;;5033504;28;20036;-81
2022/01/19 10:46:26;;;;;;;64.07;31.35;;;4.90;99.90;;;;;;5046735;28;20491;-80
2022/01/19 10:49:00;;;;;;;64.75;31.58;;;4.90;99.90;;;;;;5051419;28;20127;-80
2022/01/19 10:51:30;;;;;;;66.60;31.00;;;5.00;99.90;;;;;;5047486;28;20758;-87
2022/01/19 10:54:16;;;;;;;64.05;32.03;;;5.00;99.90;;;;;;5047388;28;20128;-83
2022/01/19 10:56:48;;;;;;;61.05;31.88;;;5.00;99.90;;;;;;5049308;28;20383;-79
2022/01/19 10:59:16;;;;;;;61.92;31.17;;;5.00;99.90;;;;;;5053303;28;20044;-80
2022/01/19 11:01:54;;;;;;;64.90;32.95;;;5.10;99.90;;;;;;5051510;28;20123;-80
2022/01/19 11:04:29;;;;;;;70.53;34.95;;;5.10;99.90;;;;;;5067556;28;20398;-81
2022/01/19 11:07:06;;;;;;;63.78;33.45;;;5.00;99.90;;;;;;5035317;28;20609;-79
2022/01/19 11:09:35;;;;;;;64.25;33.45;;;5.00;99.90;;;;;;5034717;28;20490;-80
2022/01/19 11:12:05;;;;;;;61.00;31.95;;;4.90;99.90;;;;;;5031712;28;20078;-80
2022/01/19 11:14:32;;;;;;;70.45;35.50;;;4.80;99.90;;;;;;5066872;28;20506;-82
2022/01/19 11:16:58;;;;;;;65.47;33.42;;;4.80;99.90;;;;;;5034416;28;20048;-80
2022/01/19 11:19:24;;;;;;;71.35;34.88;;;4.70;99.90;;;;;;5047600;28;20479;-81
2022/01/19 11:22:11;;;;;;;72.20;33.47;;;4.70;99.90;;;;;;5049328;28;20050;-80
2022/01/19 11:25:17;;;;;;;70.85;35.75;;;4.70;99.90;;;;;;5060174;28;20038;-81
2022/01/19 11:27:47;;;;;;;73.25;37.58;;;4.70;99.90;;;;;;5046668;28;20491;-81
2022/01/19 11:30:34;;;;;;;74.82;35.25;;;4.70;99.90;;;;;;5050888;28;20052;-82
2022/01/19 11:33:14;;;;;;;74.95;36.40;;;4.70;99.90;;;;;;5045088;28;20140;-83
2022/01/19 11:35:43;;;;;;;77.47;37.88;;;4.70;99.90;;;;;;5025985;28;20132;-78
2022/01/19 11:38:35;;;;;;;81.95;38.00;;;4.70;99.90;;;;;;5050751;28;20045;-84
2022/01/19 11:41:35;;;;;;;77.72;38.17;;;4.70;99.90;;;;;;5048513;28;20124;-84
2022/01/19 11:44:01;;;;;;;81.70;39.35;;;4.80;99.90;;;;;;5067303;28;20488;-84
2022/01/19 11:46:39;;;;;;;77.78;36.88;;;4.80;99.90;;;;;;5048279;28;20045;-83
2022/01/19 11:49:11;;;;;;;82.30;37.72;;;4.80;99.90;;;;;;5047192;28;20048;-86
2022/01/19 11:51:40;;;;;;;84.93;41.03;;;4.80;99.90;;;;;;5040262;28;20518;-85
2022/01/19 11:54:28;;;;;;;82.28;37.83;;;4.90;99.90;;;;;;5037821;28;20053;-87
2022/01/19 11:57:03;;;;;;;86.93;37.83;;;4.90;99.90;;;;;;5044567;28;20601;-86
2022/01/19 11:59:52;;;;;;;84.95;38.40;;;4.90;99.90;;;;;;5050899;28;20052;-86
2022/01/19 12:02:21;;;;;;;83.00;36.42;;;4.90;99.90;;;;;;5050664;28;20158;-85
2022/01/19 12:04:54;;;;;;;76.75;34.35;;;4.90;99.90;;;;;;5057067;28;20131;-85
2022/01/19 12:07:40;;;;;;;85.47;39.10;;;4.90;99.90;;;;;;5051591;28;20056;-85
2022/01/19 12:10:07;;;;;;;89.00;39.15;;;4.90;99.90;;;;;;5048135;28;20045;-81
2022/01/19 12:12:39;;;;;;;93.72;40.08;;;5.00;99.90;;;;;;5046587;28;20159;-84
2022/01/19 12:15:08;;;;;;;95.18;40.38;;;5.10;99.90;;;;;;5047437;28;20094;-83
2022/01/19 12:18:00;;;;;;;78.88;35.33;;;5.10;99.90;;;;;;5047543;28;20558;-88
2022/01/19 12:20:59;;;;;;;99.13;43.42;;;5.10;99.90;;;;;;5052223;28;20043;-84
2022/01/19 12:23:28;;;;;;;91.88;42.45;;;5.10;99.90;;;;;;5029453;28;20124;-84
2022/01/19 12:25:56;;;;;;;94.45;41.65;;;5.10;99.90;;;;;;5051624;28;20044;-84
2022/01/19 12:28:57;;;;;;;94.82;39.90;;;5.10;99.90;;;;;;5083349;28;20053;-83
2022/01/19 12:31:29;;;;;;;88.68;40.13;;;5.10;99.90;;;;;;5014160;28;20055;-82
2022/01/19 12:34:04;;;;;;;98.20;40.35;;;5.10;99.90;;;;;;5039012;28;20052;-83
2022/01/19 12:36:48;;;;;;;104.00;42.90;;;5.10;99.90;;;;;;5044591;28;20046;-84
2022/01/19 12:39:26;;;;;;;82.80;34.80;;;5.10;99.90;;;;;;5049970;28;20171;-84
2022/01/19 12:42:15;;;;;;;89.35;42.25;;;5.10;99.90;;;;;;5049608;28;20053;-84
2022/01/19 12:44:50;;;;;;;95.05;42.00;;;5.10;99.90;;;;;;5075053;28;20494;-84
2022/01/19 12:47:27;;;;;;;97.60;43.10;;;5.00;99.90;;;;;;5053509;28;20053;-84
2022/01/19 12:49:54;;;;;;;92.28;38.42;;;4.90;99.90;;;;;;5035597;28;20060;-84
2022/01/19 12:52:23;;;;;;;95.88;41.55;;;4.90;99.90;;;;;;5050394;28;20106;-83
2022/01/19 12:54:50;;;;;;;100.22;43.38;;;5.00;99.90;;;;;;5051772;28;20052;-83
2022/01/19 12:57:16;;;;;;;97.82;43.13;;;5.00;99.90;;;;;;5052730;28;20702;-82
2022/01/19 12:59:46;;;;;;;95.95;39.67;;;5.10;99.90;;;;;;5052322;28;20048;-84
2022/01/19 13:02:14;;;;;;;87.20;38.20;;;5.10;99.90;;;;;;5051266;28;20045;-83
2022/01/19 13:04:41;;;;;;;92.35;38.65;;;5.10;99.90;;;;;;5019307;28;20037;-84
2022/01/19 13:07:20;;;;;;;89.35;37.85;;;5.10;99.90;;;;;;5035834;28;20428;-83
2022/01/19 13:10:07;;;;;;;89.00;37.92;;;5.10;99.90;;;;;;5047086;28;20514;-83
2022/01/19 13:12:41;;;;;;;;;;;5.20;99.90;;;;;;5049550;28;20059;-82
2022/01/19 13:15:07;;;;;;;85.80;37.78;;;5.30;99.90;;;;;;5049575;28;19924;-83
2022/01/19 13:17:46;;;;;;;84.25;36.40;;;5.20;99.90;;;;;;5042067;28;20537;-83
2022/01/19 13:20:18;;;;;;;82.00;37.90;;;5.30;99.90;;;;;;5053132;28;20118;-85
2022/01/19 13:22:48;;;;;;;79.68;37.10;;;5.40;99.90;;;;;;5052068;28;20096;-86
2022/01/19 13:25:35;;;;;;;74.82;34.92;;;5.40;99.90;;;;;;5036777;28;20461;-84
2022/01/19 13:28:02;;;;;;;78.47;32.67;;;5.50;99.90;;;;;;5045939;28;20053;-83
2022/01/19 13:30:30;;;;;;;76.88;32.78;;;5.50;99.90;;;;;;5048183;28;20115;-82
2022/01/19 13:32:57;;;;;;;77.90;36.17;;;5.50;99.90;;;;;;5064722;28;20045;-83
2022/01/19 13:35:25;;;;;;;80.03;35.28;;;5.60;99.90;;;;;;5052054;28;20092;-83
2022/01/19 13:37:58;;;;;;;73.32;33.72;;;5.60;99.90;;;;;;5051333;28;20083;-82
2022/01/19 13:40:33;;;;;;;82.03;36.15;;;5.60;99.90;;;;;;5034688;28;20445;-82
2022/01/19 13:43:08;;;;;;;74.70;34.92;;;5.60;99.90;;;;;;5051480;28;20083;-83
2022/01/19 13:48:32;;;;;;;72.90;31.98;;;5.60;99.90;;;;;;5052065;28;20076;-83
2022/01/19 13:51:25;;;;;;;72.85;34.22;;;5.60;99.90;;;;;;5050533;28;20061;-82
2022/01/19 13:53:53;;;;;;;72.88;32.70;;;5.60;99.90;;;;;;5033028;28;20047;-83
2022/01/19 13:56:37;;;;;;;68.53;31.35;;;5.60;99.90;;;;;;5034939;28;20438;-82
2022/01/19 13:59:17;;;;;;;64.13;30.77;;;5.50;99.90;;;;;;5050005;28;20109;-83
2022/01/19 14:01:56;;;;;;;73.22;30.38;;;5.50;99.90;;;;;;5034764;28;20060;-82
2022/01/19 14:04:23;;;;;;;55.13;26.58;;;5.50;99.90;;;;;;5035189;28;20787;-82
2022/01/19 14:06:49;;;;;;;68.65;32.83;;;5.40;99.90;;;;;;5032304;28;20410;-85
2022/01/19 14:09:34;;;;;;;58.35;29.05;;;5.40;99.90;;;;;;5051145;28;20051;-83
2022/01/19 14:12:08;;;;;;;64.88;28.50;;;5.50;99.90;;;;;;5051087;28;20407;-84
2022/01/19 14:14:41;;;;;;;76.35;33.85;;;5.30;99.90;;;;;;5037091;28;20114;-84
2022/01/19 14:17:22;;;;;;;68.70;30.08;;;5.20;99.90;;;;;;5034444;28;20053;-84
2022/01/19 14:19:49;;;;;;;76.50;33.25;;;5.10;99.90;;;;;;5034943;28;20524;-85
2022/01/19 14:22:21;;;;;;;77.68;33.33;;;5.00;99.90;;;;;;5034054;28;20041;-84
2022/01/19 14:24:47;;;;;;;63.80;28.35;;;5.00;99.90;;;;;;5048950;28;20045;-84
2022/01/19 14:27:25;;;;;;;78.72;33.40;;;5.00;99.90;;;;;;5050888;28;20195;-83
2022/01/19 14:30:23;;;;;;;76.32;32.70;;;4.90;99.90;;;;;;5042147;28;20045;-86